Time;durP1;ratioP1;P1;durP2;ratioP2;P2;SDS_P1;SDS_P2;PMS_P1;PMS_P2;Temp;Humidity;BMP_temperature;BMP_pressure;BME280_temperature;BME280_humidity;BME280_pressure;Samples;Min_cycle;Max_cycle;Signal;HPM_P1;HPM_P2
2023/08/16 00:00:20;;;;;;;8.98;3.28;;;;;;;20.08;100.00;96100.72;1022105;29;20044;-77
2023/08/16 00:00:51;;;;;;;3.30;3.00;;;;;;;20.02;100.00;96086.78;1019121;29;20090;-76
2023/08/16 00:01:22;;;;;;;5.53;3.13;;;;;;;20.00;100.00;96087.09;1022709;28;20460;-78
2023/08/16 00:01:52;;;;;;;6.30;3.00;;;;;;;19.98;100.00;96075.97;1018493;29;20031;-76
2023/08/16 00:02:22;;;;;;;5.80;3.33;;;;;;;20.14;100.00;96086.16;1022332;28;20063;-77
2023/08/16 00:02:53;;;;;;;5.35;2.88;;;;;;;20.22;100.00;96088.00;1022434;29;20454;-74
2023/08/16 00:03:24;;;;;;;5.00;2.78;;;;;;;20.28;100.00;96078.75;1022760;28;20027;-78
2023/08/16 00:03:55;;;;;;;4.30;2.60;;;;;;;20.38;100.00;96091.75;1034692;28;20488;-75
2023/08/16 00:04:25;;;;;;;8.73;3.25;;;;;;;20.42;100.00;96090.03;1034542;28;20037;-78
2023/08/16 00:04:55;;;;;;;3.47;2.97;;;;;;;20.43;100.00;96080.16;1030410;28;20034;-78
2023/08/16 00:05:26;;;;;;;5.20;2.92;;;;;;;20.40;100.00;96092.22;1030402;28;20471;-78
2023/08/16 00:05:57;;;;;;;2.53;2.30;;;;;;;20.38;100.00;96086.41;1026375;28;20034;-75
2023/08/16 00:06:27;;;;;;;3.33;2.88;;;;;;;20.39;100.00;96089.88;1022446;28;20039;-77
2023/08/16 00:06:58;;;;;;;6.43;2.78;;;;;;;20.38;100.00;96085.63;1026362;28;20042;-75
2023/08/16 00:07:28;;;;;;;4.80;2.80;;;;;;;20.31;100.00;96077.34;1024507;28;20027;-77
2023/08/16 00:07:59;;;;;;;3.28;2.88;;;;;;;20.41;100.00;96088.44;1026589;28;20030;-77
2023/08/16 00:08:29;;;;;;;4.95;2.63;;;;;;;20.39;100.00;96085.34;1026252;28;20031;-74
2023/08/16 00:09:01;;;;;;;6.03;3.20;;;;;;;20.28;100.00;96070.75;1026563;28;20134;-74
2023/08/16 00:09:31;;;;;;;4.50;3.33;;;;;;;20.38;100.00;96083.75;1034639;28;20100;-76
2023/08/16 00:10:02;;;;;;;4.57;2.60;;;;;;;20.36;100.00;96088.63;1034415;28;20487;-76
2023/08/16 00:10:32;;;;;;;4.05;2.85;;;;;;;20.32;100.00;96084.22;1029732;28;20073;-77
2023/08/16 00:11:03;;;;;;;7.03;3.10;;;;;;;20.35;100.00;96094.25;1026393;28;20154;-77
2023/08/16 00:11:33;;;;;;;7.55;3.08;;;;;;;20.37;100.00;96092.84;1026323;28;20497;-77
2023/08/16 00:12:04;;;;;;;4.82;3.20;;;;;;;20.28;100.00;96065.44;1030564;28;20122;-75
2023/08/16 00:12:35;;;;;;;4.05;3.00;;;;;;;20.34;100.00;96090.03;1034673;28;20431;-77
2023/08/16 00:13:06;;;;;;;3.50;2.80;;;;;;;20.22;100.00;96078.16;1034456;28;20026;-77
2023/08/16 00:13:36;;;;;;;8.43;3.35;;;;;;;20.26;100.00;96088.97;1030281;28;20050;-76
2023/08/16 00:14:07;;;;;;;4.90;2.75;;;;;;;20.23;100.00;96093.03;1022308;29;20115;-77
2023/08/16 00:14:37;;;;;;;12.07;3.42;;;;;;;20.15;100.00;96085.03;1026054;28;20045;-75
2023/08/16 00:15:08;;;;;;;4.82;3.33;;;;;;;20.16;100.00;96086.63;1022520;28;20122;-76
2023/08/16 00:15:39;;;;;;;6.38;2.85;;;;;;;20.14;100.00;96088.81;1026415;28;20042;-77
2023/08/16 00:16:09;;;;;;;4.38;3.20;;;;;;;20.11;100.00;96086.78;1030313;28;20069;-75
2023/08/16 00:16:40;;;;;;;3.03;2.63;;;;;;;20.02;100.00;96082.25;1037702;28;20029;-77
2023/08/16 00:17:10;;;;;;;7.53;3.10;;;;;;;20.07;100.00;96086.63;1035188;28;20035;-77
2023/08/16 00:17:41;;;;;;;7.30;2.83;;;;;;;20.06;100.00;96086.94;1035221;28;20585;-77
2023/08/16 00:18:11;;;;;;;8.20;3.30;;;;;;;19.97;100.00;96078.94;1030759;28;20045;-76
2023/08/16 00:18:42;;;;;;;9.93;3.85;;;;;;;19.93;100.00;96081.47;1027219;28;20042;-76
2023/08/16 00:19:12;;;;;;;9.38;3.58;;;;;;;19.93;100.00;96086.78;1027112;28;20069;-77
2023/08/16 00:19:43;;;;;;;5.90;3.10;;;;;;;19.89;100.00;96080.53;1027057;28;20735;-75
2023/08/16 00:20:13;;;;;;;7.15;3.70;;;;;;;19.93;100.00;96086.78;1027062;28;20039;-79
2023/08/16 00:20:44;;;;;;;5.25;2.80;;;;;;;19.93;100.00;96094.00;1026539;28;20090;-75
2023/08/16 00:21:14;;;;;;;3.85;2.78;;;;;;;19.84;100.00;96090.53;1027229;28;20030;-77
2023/08/16 00:21:45;;;;;;;10.10;3.55;;;;;;;19.83;100.00;96095.09;1031071;28;20464;-77
2023/08/16 00:22:15;;;;;;;4.90;2.92;;;;;;;19.78;100.00;96087.25;1031025;28;20125;-76
2023/08/16 00:22:46;;;;;;;4.32;3.15;;;;;;;19.79;100.00;96088.81;1022888;28;20618;-76
2023/08/16 00:23:16;;;;;;;4.68;3.00;;;;;;;19.81;100.00;96091.94;1026922;28;20081;-76
2023/08/16 00:23:47;;;;;;;4.50;3.13;;;;;;;19.82;100.00;96098.06;1030935;28;20520;-78
2023/08/16 00:24:18;;;;;;;4.28;3.20;;;;;;;19.80;100.00;96094.94;1030901;28;20026;-76
2023/08/16 00:24:48;;;;;;;5.32;3.25;;;;;;;19.80;100.00;96095.72;1034796;28;20084;-76
2023/08/16 00:25:19;;;;;;;5.38;3.40;;;;;;;19.75;100.00;96087.84;1030987;28;20027;-76
2023/08/16 00:25:49;;;;;;;6.28;3.38;;;;;;;19.78;100.00;96095.22;1022877;29;20028;-75
2023/08/16 00:26:20;;;;;;;5.15;3.15;;;;;;;19.76;100.00;96094.78;1019034;29;20027;-76
2023/08/16 00:26:51;;;;;;;5.00;3.20;;;;;;;19.65;100.00;96082.84;1018737;29;20054;-77
2023/08/16 00:27:21;;;;;;;4.60;3.30;;;;;;;19.77;100.00;96101.66;1026956;28;20053;-76
2023/08/16 00:27:52;;;;;;;5.15;3.10;;;;;;;19.71;100.00;96093.03;1030785;28;20018;-76
2023/08/16 00:28:22;;;;;;;5.32;3.08;;;;;;;19.66;100.00;96089.75;1030850;28;20023;-78
2023/08/16 00:28:54;;;;;;;5.63;3.33;;;;;;;19.72;100.00;96097.28;1034859;28;20069;-75
2023/08/16 00:29:24;;;;;;;5.53;3.25;;;;;;;19.71;100.00;96103.69;1031023;28;20471;-75
2023/08/16 00:29:54;;;;;;;4.53;3.38;;;;;;;19.72;100.00;96105.28;1026784;28;20027;-77
2023/08/16 00:30:25;;;;;;;5.40;3.30;;;;;;;19.69;100.00;96100.56;1022287;28;20038;-76
2023/08/16 00:30:55;;;;;;;5.97;3.25;;;;;;;19.69;100.00;96105.09;1026744;28;20050;-77
2023/08/16 00:31:26;;;;;;;7.72;3.10;;;;;;;19.68;100.00;96101.63;1022995;28;20156;-78
2023/08/16 00:31:57;;;;;;;6.53;3.65;;;;;;;19.61;100.00;96090.63;1026889;28;20047;-76
2023/08/16 00:32:28;;;;;;;5.55;3.13;;;;;;;19.65;100.00;96098.81;1030740;28;20499;-77
2023/08/16 00:32:58;;;;;;;5.80;3.08;;;;;;;19.64;100.00;96097.25;1031240;28;20022;-77
2023/08/16 00:33:29;;;;;;;8.13;3.50;;;;;;;19.59;100.00;96094.72;1034763;28;20415;-75
2023/08/16 00:33:59;;;;;;;4.72;3.30;;;;;;;19.49;100.00;96079.84;1035049;28;20025;-76
2023/08/16 00:34:30;;;;;;;3.70;3.30;;;;;;;19.51;100.00;96094.38;1030716;28;20100;-78
2023/08/16 00:35:00;;;;;;;4.85;3.53;;;;;;;19.47;100.00;96092.66;1030791;28;20034;-77
2023/08/16 00:35:31;;;;;;;6.97;3.70;;;;;;;19.45;100.00;96082.34;1026785;28;20941;-78
2023/08/16 00:36:01;;;;;;;5.47;3.63;;;;;;;19.50;100.00;96102.69;1030767;28;20487;-76
2023/08/16 00:36:32;;;;;;;3.80;3.15;;;;;;;19.52;100.00;96106.63;1022730;29;20032;-76
2023/08/16 00:37:02;;;;;;;6.07;3.42;;;;;;;19.51;100.00;96101.59;1025932;28;20027;-76
2023/08/16 00:37:33;;;;;;;6.82;3.08;;;;;;;19.49;100.00;96101.91;1030850;28;20067;-76
2023/08/16 00:38:03;;;;;;;4.15;3.50;;;;;;;19.39;100.00;96091.56;1027034;28;20023;-76
2023/08/16 00:38:34;;;;;;;5.28;3.42;;;;;;;19.39;100.00;96091.56;1034634;28;20026;-75
2023/08/16 00:39:04;;;;;;;6.93;3.75;;;;;;;19.38;100.00;96097.94;1034824;28;20022;-77
2023/08/16 00:39:35;;;;;;;8.68;3.92;;;;;;;19.42;100.00;96098.16;1034966;28;20029;-76
2023/08/16 00:40:07;;;;;;;12.10;3.95;;;;;;;19.44;100.00;96110.03;1027053;28;20561;-75
2023/08/16 00:40:38;;;;;;;9.57;3.80;;;;;;;19.42;100.00;96104.25;1027106;28;21017;-76
2023/08/16 00:41:12;;;;;;;8.05;3.97;;;;;;;19.42;100.00;96109.56;1023657;28;20023;-77
2023/08/16 00:41:43;;;;;;;11.35;4.43;;;;;;;19.37;100.00;96096.41;1023906;28;20607;-76
2023/08/16 00:42:13;;;;;;;10.52;3.47;;;;;;;19.44;100.00;96107.38;1026844;28;20026;-75
2023/08/16 00:42:44;;;;;;;7.15;4.00;;;;;;;19.42;100.00;96112.22;1026941;28;20449;-75
2023/08/16 00:43:15;;;;;;;6.82;3.83;;;;;;;19.31;100.00;96095.78;1026774;28;20027;-77
2023/08/16 00:43:45;;;;;;;3.63;3.20;;;;;;;19.23;100.00;96091.19;1023167;28;20126;-75
2023/08/16 00:44:15;;;;;;;5.32;3.40;;;;;;;19.40;100.00;96113.63;1026959;28;20086;-76
2023/08/16 00:44:46;;;;;;;4.40;3.15;;;;;;;19.38;100.00;96107.81;1026893;28;20057;-78
2023/08/16 00:45:17;;;;;;;7.55;4.10;;;;;;;19.32;100.00;96101.88;1022621;28;20062;-77
2023/08/16 00:45:47;;;;;;;7.88;3.90;;;;;;;19.38;100.00;96115.81;1022902;29;20059;-75
2023/08/16 00:46:18;;;;;;;6.53;3.63;;;;;;;19.23;100.00;96093.09;1019174;29;20074;-75
2023/08/16 00:46:48;;;;;;;7.32;3.50;;;;;;;19.31;100.00;96108.28;1026970;28;20015;-77
2023/08/16 00:47:19;;;;;;;8.27;3.33;;;;;;;19.34;100.00;96107.66;1026983;28;20050;-75
2023/08/16 00:47:49;;;;;;;4.93;3.45;;;;;;;19.28;100.00;96100.91;1018804;29;20062;-76
2023/08/16 00:48:20;;;;;;;3.03;2.83;;;;;;;19.31;100.00;96113.59;1018990;29;20020;-76
2023/08/16 00:48:50;;;;;;;7.50;3.50;;;;;;;19.28;100.00;96112.34;1020989;28;20028;-77
2023/08/16 00:49:21;;;;;;;5.85;3.20;;;;;;;19.22;100.00;96102.94;1022720;29;20057;-77
2023/08/16 00:49:51;;;;;;;4.97;3.88;;;;;;;19.22;100.00;96104.81;1018966;29;20079;-76
2023/08/16 00:50:24;;;;;;;4.97;3.55;;;;;;;19.26;100.00;96114.53;1023840;28;20638;-76
2023/08/16 00:50:54;;;;;;;5.47;3.35;;;;;;;19.16;100.00;96103.38;1026695;28;20051;-77
2023/08/16 00:51:24;;;;;;;5.72;3.25;;;;;;;19.22;100.00;96112.81;1030760;28;20034;-75
2023/08/16 00:51:55;;;;;;;5.30;3.50;;;;;;;19.18;100.00;96111.81;1022758;29;20034;-77
2023/08/16 00:52:26;;;;;;;7.82;3.40;;;;;;;19.14;100.00;96113.53;1026970;28;20472;-76
2023/08/16 00:52:56;;;;;;;7.28;3.67;;;;;;;19.08;100.00;96113.69;1026816;28;20544;-75
2023/08/16 00:53:27;;;;;;;7.82;3.60;;;;;;;18.98;100.00;96100.66;1022624;29;20029;-75
2023/08/16 00:53:57;;;;;;;5.43;3.35;;;;;;;19.06;100.00;96126.50;1024945;28;20027;-75
2023/08/16 00:54:28;;;;;;;4.03;3.20;;;;;;;18.85;100.00;96093.59;1022681;29;20031;-76
2023/08/16 00:54:59;;;;;;;6.43;3.83;;;;;;;18.94;100.00;96112.22;1022997;28;20031;-77
2023/08/16 00:55:29;;;;;;;5.63;3.42;;;;;;;18.99;100.00;96115.53;1029509;28;20062;-75
2023/08/16 00:56:01;;;;;;;6.32;3.80;;;;;;;18.98;100.00;96113.97;1027765;28;20022;-75
2023/08/16 00:56:31;;;;;;;6.32;3.75;;;;;;;18.99;100.00;96123.50;1030990;28;20026;-75
2023/08/16 00:57:02;;;;;;;10.82;4.00;;;;;;;18.95;100.00;96114.59;1030909;28;20054;-76
2023/08/16 00:57:32;;;;;;;7.53;4.32;;;;;;;18.84;100.00;96092.00;1018812;29;20088;-77
2023/08/16 00:58:03;;;;;;;5.03;3.22;;;;;;;18.93;100.00;96114.09;1018952;29;20482;-77
2023/08/16 00:58:33;;;;;;;5.45;3.88;;;;;;;19.00;100.00;96127.72;1022702;29;20023;-77
2023/08/16 00:59:04;;;;;;;5.00;3.50;;;;;;;18.99;100.00;96123.50;1026755;28;20027;-77
2023/08/16 00:59:34;;;;;;;6.10;3.58;;;;;;;19.04;100.00;96127.91;1026574;28;20055;-77
2023/08/16 01:00:05;;;;;;;11.00;3.75;;;;;;;18.85;100.00;96098.91;1026944;28;20026;-75
2023/08/16 01:00:36;;;;;;;8.68;4.50;;;;;;;18.96;100.00;96116.16;1025924;28;20037;-75
2023/08/16 01:01:07;;;;;;;8.40;3.53;;;;;;;18.93;100.00;96115.97;1030666;28;20037;-78
2023/08/16 01:01:37;;;;;;;6.20;3.47;;;;;;;18.93;100.00;96115.97;1030831;28;20504;-76
2023/08/16 01:02:08;;;;;;;10.13;3.90;;;;;;;18.87;100.00;96110.00;1026723;28;20031;-76
2023/08/16 01:02:39;;;;;;;5.95;3.95;;;;;;;18.91;100.00;96118.91;1030927;28;20037;-78
2023/08/16 01:03:09;;;;;;;8.70;4.07;;;;;;;18.93;100.00;96121.28;1034881;28;20030;-74
2023/08/16 01:03:39;;;;;;;3.95;3.55;;;;;;;18.81;100.00;96106.69;1030928;28;20064;-75
2023/08/16 01:04:10;;;;;;;7.25;3.88;;;;;;;18.87;100.00;96117.19;1032227;28;20118;-76
2023/08/16 01:04:41;;;;;;;15.48;4.28;;;;;;;18.82;100.00;96110.16;1022637;29;20027;-77
2023/08/16 01:05:12;;;;;;;8.10;3.53;;;;;;;18.82;100.00;96115.47;1018755;29;20683;-75
2023/08/16 01:05:42;;;;;;;7.88;3.83;;;;;;;18.82;100.00;96120.78;1022531;28;20023;-75
2023/08/16 01:06:13;;;;;;;10.85;3.85;;;;;;;18.66;100.00;96095.63;1022869;29;20028;-77
2023/08/16 01:06:44;;;;;;;7.22;3.72;;;;;;;18.76;100.00;96103.38;1026989;28;20039;-74
2023/08/16 01:07:14;;;;;;;7.85;3.72;;;;;;;18.83;100.00;96119.69;1030844;28;20768;-75
2023/08/16 01:07:45;;;;;;;12.35;3.85;;;;;;;18.76;100.00;96106.81;1030765;28;20026;-75
2023/08/16 01:08:16;;;;;;;9.75;4.03;;;;;;;18.76;100.00;96098.06;1030611;28;20038;-77
2023/08/16 01:08:46;;;;;;;14.40;4.00;;;;;;;18.73;100.00;96106.66;1030735;28;20058;-76
2023/08/16 01:09:18;;;;;;;4.60;3.30;;;;;;;18.73;100.00;96107.44;1030712;28;20034;-77
2023/08/16 01:09:48;;;;;;;7.95;3.42;;;;;;;18.74;100.00;96113.53;1037435;28;20024;-74
2023/08/16 01:10:21;;;;;;;6.70;3.50;;;;;;;18.66;100.00;96107.06;1034307;28;20829;-76
2023/08/16 01:10:59;;;;;;;5.95;3.67;;;;;;;18.69;100.00;96110.97;1034573;28;20586;-77
2023/08/16 01:11:35;;;;;;;6.82;3.75;;;;;;;18.71;100.00;96119.41;1030652;28;20022;-76
2023/08/16 01:12:09;;;;;;;7.20;3.70;;;;;;;18.73;100.00;96119.94;1022768;29;20604;-75
2023/08/16 01:12:49;;;;;;;8.48;3.88;;;;;;;18.73;100.00;96122.59;1030777;28;20069;-76
2023/08/16 01:13:24;;;;;;;8.00;3.97;;;;;;;18.66;100.00;96122.22;1030626;28;20033;-77
2023/08/16 01:14:12;;;;;;;13.75;4.22;;;;;;;18.69;100.00;96132.25;1026727;28;20464;-74
2023/08/16 01:15:09;;;;;;;8.57;4.00;;;;;;;18.65;100.00;96123.31;1026608;28;20027;-76
2023/08/16 01:15:42;;;;;;;6.10;3.70;;;;;;;18.60;100.00;96121.56;1024166;28;20065;-76
2023/08/16 01:16:12;;;;;;;8.05;4.15;;;;;;;18.47;100.00;96109.13;1024313;28;20020;-77
2023/08/16 01:16:43;;;;;;;8.82;4.30;;;;;;;18.58;100.00;96127.19;1022847;28;20062;-76
2023/08/16 01:17:13;;;;;;;5.35;4.20;;;;;;;18.63;100.00;96130.81;1026745;28;20023;-77
2023/08/16 01:17:44;;;;;;;5.32;3.90;;;;;;;18.55;100.00;96127.78;1022661;29;20608;-75
2023/08/16 01:18:14;;;;;;;7.53;4.05;;;;;;;18.56;100.00;96131.22;1024832;28;20051;-77
2023/08/16 01:18:45;;;;;;;5.47;3.67;;;;;;;18.57;100.00;96135.44;1018897;29;20020;-77
2023/08/16 01:19:20;;;;;;;7.53;4.32;;;;;;;18.58;100.00;96135.16;1022653;29;20065;-76
2023/08/16 01:19:52;;;;;;;10.63;4.45;;;;;;;18.51;100.00;96118.88;1027987;28;20034;-77
2023/08/16 01:20:22;;;;;;;8.13;4.20;;;;;;;18.50;100.00;96124.47;1030100;28;20023;-74
2023/08/16 01:20:53;;;;;;;6.47;4.25;;;;;;;18.57;100.00;96130.13;1026536;28;20038;-75
2023/08/16 01:21:23;;;;;;;6.88;4.47;;;;;;;18.49;100.00;96126.34;1026538;28;20049;-75
2023/08/16 01:22:00;;;;;;;6.55;4.45;;;;;;;18.55;100.00;96135.78;1030556;28;20584;-75
2023/08/16 01:23:00;;;;;;;8.07;4.90;;;;;;;18.50;100.00;96119.94;984831;29;1106910;-75
2023/08/16 01:23:37;;;;;;;6.88;4.45;;;;;;;18.57;100.00;96130.91;1027453;28;20035;-74
2023/08/16 01:24:18;;;;;;;6.60;4.30;;;;;;;18.47;100.00;96115.22;1023674;28;20031;-75
2023/08/16 01:25:04;;;;;;;9.20;4.57;;;;;;;18.57;100.00;96127.47;1018720;29;20028;-76
2023/08/16 01:25:35;;;;;;;8.63;5.22;;;;;;;18.58;100.00;96135.16;1022790;28;20390;-77
2023/08/16 01:26:25;;;;;;;7.95;4.60;;;;;;;18.50;100.00;96119.94;1026519;28;20550;-75
2023/08/16 01:26:55;;;;;;;6.03;4.13;;;;;;;18.52;100.00;96122.31;1034775;28;20021;-75
2023/08/16 01:27:26;;;;;;;7.95;4.68;;;;;;;18.56;100.00;96134.66;1026604;28;20258;-75
2023/08/16 01:27:56;;;;;;;11.43;5.55;;;;;;;18.47;100.00;96117.09;1022978;29;20050;-74
2023/08/16 01:28:27;;;;;;;6.82;4.50;;;;;;;18.57;100.00;96127.47;1014936;29;20079;-76
2023/08/16 01:28:59;;;;;;;7.30;5.10;;;;;;;18.56;100.00;96132.00;1026809;28;20034;-77
2023/08/16 01:29:30;;;;;;;10.90;4.90;;;;;;;18.47;100.00;96117.88;1022945;29;20034;-77
2023/08/16 01:30:03;;;;;;;9.95;4.72;;;;;;;18.49;100.00;96123.69;1018927;29;20389;-77
2023/08/16 01:30:33;;;;;;;13.60;4.68;;;;;;;18.55;100.00;96127.78;1030151;28;20034;-77
2023/08/16 01:31:04;;;;;;;15.15;4.82;;;;;;;18.58;100.00;96131.72;1026842;28;20093;-75
2023/08/16 01:31:34;;;;;;;8.43;4.40;;;;;;;18.56;100.00;96128.56;1022595;28;20582;-78
2023/08/16 01:32:05;;;;;;;10.13;4.65;;;;;;;18.56;100.00;96133.88;1022901;29;20082;-75
2023/08/16 01:32:36;;;;;;;8.95;4.55;;;;;;;18.47;100.00;96117.88;1026835;28;20341;-78
2023/08/16 01:33:07;;;;;;;10.23;4.80;;;;;;;18.53;100.00;96132.63;1026731;28;20031;-76
2023/08/16 01:33:38;;;;;;;4.40;3.97;;;;;;;18.51;100.00;96132.16;1022805;28;20050;-76
2023/08/16 01:34:08;;;;;;;5.82;4.55;;;;;;;18.51;100.00;96126.03;1030815;28;20057;-76
2023/08/16 01:34:39;;;;;;;6.55;4.40;;;;;;;18.51;100.00;96128.69;1026864;28;20085;-74
2023/08/16 01:35:09;;;;;;;6.50;4.70;;;;;;;18.45;100.00;96117.41;1026636;28;20037;-77
2023/08/16 01:35:40;;;;;;;7.38;4.53;;;;;;;18.52;100.00;96130.28;1030982;28;20453;-77
2023/08/16 01:36:10;;;;;;;10.00;4.40;;;;;;;18.51;100.00;96134.00;1022945;28;20041;-75
2023/08/16 01:36:41;;;;;;;8.75;4.30;;;;;;;18.46;100.00;96120.84;1018853;28;20130;-78
2023/08/16 01:37:11;;;;;;;9.43;5.30;;;;;;;18.50;100.00;96130.56;1014848;29;20079;-76
2023/08/16 01:37:42;;;;;;;9.25;4.50;;;;;;;18.45;100.00;96122.72;1015256;29;20036;-75
2023/08/16 01:38:13;;;;;;;6.53;4.40;;;;;;;18.46;100.00;96126.16;1026942;28;20511;-76
2023/08/16 01:38:43;;;;;;;6.00;4.30;;;;;;;18.40;100.00;96122.84;1026830;28;20543;-76
2023/08/16 01:39:14;;;;;;;7.97;4.35;;;;;;;18.33;100.00;96114.50;1026780;28;20038;-75
2023/08/16 01:39:44;;;;;;;7.22;4.60;;;;;;;18.36;100.00;96113.91;1026948;28;20023;-76
2023/08/16 01:40:15;;;;;;;6.15;4.47;;;;;;;18.43;100.00;96124.91;1018701;29;20482;-77
2023/08/16 01:41:01;;;;;;;4.43;4.03;;;;;;;18.42;100.00;96133.97;1026114;28;20050;-76
2023/08/16 01:41:50;;;;;;;6.68;4.97;;;;;;;18.38;100.00;96130.34;1026797;28;20029;-76
2023/08/16 01:42:20;;;;;;;7.07;4.50;;;;;;;18.32;100.00;96121.69;1030771;28;20034;-75
2023/08/16 01:42:51;;;;;;;7.78;4.65;;;;;;;18.44;100.00;96137.09;1026788;28;20507;-73
2023/08/16 01:43:21;;;;;;;7.43;4.70;;;;;;;18.35;100.00;96128.28;1022766;29;20019;-74
2023/08/16 01:43:52;;;;;;;11.07;4.90;;;;;;;18.44;100.00;96139.75;1034004;28;20022;-75
2023/08/16 01:44:22;;;;;;;11.77;5.50;;;;;;;18.39;100.00;96131.91;1030985;28;20030;-75
2023/08/16 01:44:53;;;;;;;8.80;4.95;;;;;;;18.40;100.00;96127.38;1026856;28;20018;-74
2023/08/16 01:45:23;;;;;;;5.97;4.68;;;;;;;18.40;100.00;96130.03;1024428;28;20077;-76
2023/08/16 01:45:54;;;;;;;7.85;4.70;;;;;;;18.35;100.00;96131.72;1018926;29;20367;-76
2023/08/16 01:46:25;;;;;;;6.70;4.55;;;;;;;18.37;100.00;96126.09;1026934;28;20061;-75
2023/08/16 01:46:55;;;;;;;9.88;4.65;;;;;;;18.41;100.00;96137.72;1026807;28;20953;-76
2023/08/16 01:47:27;;;;;;;8.85;4.78;;;;;;;18.43;100.00;96135.53;1022873;29;20509;-73
2023/08/16 01:47:57;;;;;;;8.82;5.53;;;;;;;18.40;100.00;96133.47;1023019;29;20023;-76
2023/08/16 01:48:28;;;;;;;19.73;5.35;;;;;;;18.44;100.00;96142.41;1034800;28;20037;-75
2023/08/16 01:48:58;;;;;;;8.68;4.93;;;;;;;18.41;100.00;96136.91;1034812;28;20030;-74
2023/08/16 01:49:29;;;;;;;10.40;5.10;;;;;;;18.26;100.00;96114.94;1030605;28;20026;-77
2023/08/16 01:49:59;;;;;;;10.40;5.35;;;;;;;18.41;100.00;96131.59;1022866;29;20038;-76
2023/08/16 01:50:29;;;;;;;9.63;4.95;;;;;;;18.35;100.00;96128.28;1019710;28;20418;-74
2023/08/16 01:51:00;;;;;;;13.13;4.93;;;;;;;18.42;100.00;96144.59;1026874;28;20097;-76
2023/08/16 01:51:30;;;;;;;6.22;4.68;;;;;;;18.41;100.00;96139.56;1030858;28;20535;-75
2023/08/16 01:52:01;;;;;;;8.30;4.95;;;;;;;18.39;100.00;96139.88;1030746;28;20097;-77
2023/08/16 01:52:31;;;;;;;12.50;5.47;;;;;;;18.38;100.00;96138.31;1034890;28;20614;-75
2023/08/16 01:53:02;;;;;;;8.35;4.28;;;;;;;18.35;100.00;96133.59;1034824;28;20037;-76
2023/08/16 01:53:33;;;;;;;6.13;4.90;;;;;;;18.26;100.00;96124.78;1034868;28;20471;-76
2023/08/16 01:54:04;;;;;;;7.70;5.15;;;;;;;18.32;100.00;96140.31;1034740;28;20052;-77
2023/08/16 01:54:35;;;;;;;7.22;5.28;;;;;;;18.22;100.00;96118.50;1034542;28;20045;-75
2023/08/16 01:55:05;;;;;;;8.05;5.53;;;;;;;18.24;100.00;96125.09;1026831;28;20818;-75
2023/08/16 01:55:36;;;;;;;6.60;4.85;;;;;;;18.13;100.00;96113.91;1028476;28;20030;-75
2023/08/16 01:56:06;;;;;;;8.52;5.35;;;;;;;18.14;100.00;96112.03;1030790;28;20021;-77
2023/08/16 01:56:37;;;;;;;8.38;5.10;;;;;;;18.24;100.00;96134.91;1031068;28;20144;-76
2023/08/16 01:57:07;;;;;;;10.07;6.28;;;;;;;18.22;100.00;96129.13;1034920;28;20022;-75
2023/08/16 01:57:38;;;;;;;6.43;5.22;;;;;;;18.22;100.00;96134.44;1034902;28;20026;-74
2023/08/16 01:58:08;;;;;;;9.45;5.18;;;;;;;18.13;100.00;96121.88;1026631;28;20651;-74
2023/08/16 01:58:39;;;;;;;8.52;5.03;;;;;;;18.21;100.00;96127.53;1026779;28;20023;-77
2023/08/16 01:59:09;;;;;;;8.73;5.75;;;;;;;18.20;100.00;96131.28;1026584;28;20062;-77
2023/08/16 01:59:40;;;;;;;13.13;6.03;;;;;;;18.21;100.00;96132.84;1026819;28;20066;-76
2023/08/16 02:00:11;;;;;;;9.52;4.85;;;;;;;18.18;100.00;96130.84;1018783;29;20035;-77
2023/08/16 02:00:42;;;;;;;20.83;5.70;;;;;;;18.17;100.00;96129.25;1018186;29;20024;-76
2023/08/16 02:01:13;;;;;;;8.15;5.05;;;;;;;18.13;100.00;96129.84;1022919;28;20066;-76
2023/08/16 02:01:43;;;;;;;13.32;5.22;;;;;;;18.20;100.00;96139.25;1026725;28;20026;-74
2023/08/16 02:02:14;;;;;;;8.32;5.22;;;;;;;18.16;100.00;96135.66;1026373;28;20031;-75
2023/08/16 02:02:44;;;;;;;9.98;5.20;;;;;;;18.19;100.00;96135.81;1030689;28;20050;-76
2023/08/16 02:03:14;;;;;;;8.73;4.80;;;;;;;18.18;100.00;96146.78;1030801;28;20477;-77
2023/08/16 02:03:45;;;;;;;8.20;5.32;;;;;;;18.18;100.00;96142.22;1030899;28;20029;-75
2023/08/16 02:04:15;;;;;;;9.85;5.35;;;;;;;18.07;100.00;96128.38;1034486;28;20014;-76
2023/08/16 02:04:46;;;;;;;6.10;4.80;;;;;;;18.11;100.00;96133.91;1030773;28;20050;-77
2023/08/16 02:05:17;;;;;;;6.13;5.20;;;;;;;18.09;100.00;96133.41;1030907;28;20026;-77
2023/08/16 02:05:47;;;;;;;7.47;5.13;;;;;;;18.01;100.00;96129.59;1026421;28;20027;-75
2023/08/16 02:06:18;;;;;;;10.38;5.03;;;;;;;18.11;100.00;96145.31;1026802;28;20015;-74
2023/08/16 02:06:48;;;;;;;8.95;5.10;;;;;;;18.04;100.00;96134.31;1026615;28;20428;-75
2023/08/16 02:07:19;;;;;;;9.77;5.50;;;;;;;18.09;100.00;96144.03;1026702;28;20027;-76
2023/08/16 02:07:49;;;;;;;9.40;5.05;;;;;;;17.90;100.00;96123.72;1026706;28;20540;-75
2023/08/16 02:08:20;;;;;;;5.70;5.10;;;;;;;18.07;100.00;96154.16;1022701;28;20090;-76
2023/08/16 02:08:51;;;;;;;7.68;5.03;;;;;;;17.96;100.00;96132.34;1026661;28;20045;-75
2023/08/16 02:09:22;;;;;;;6.72;4.95;;;;;;;18.08;100.00;96147.78;1022663;28;20015;-76
2023/08/16 02:09:52;;;;;;;8.70;5.47;;;;;;;18.05;100.00;96141.19;1023343;28;20027;-77
2023/08/16 02:10:23;;;;;;;7.95;5.53;;;;;;;18.06;100.00;96153.38;1030122;28;20481;-76
2023/08/16 02:10:53;;;;;;;7.53;4.85;;;;;;;18.02;100.00;96149.75;1030580;28;20030;-75
2023/08/16 02:11:24;;;;;;;6.70;5.03;;;;;;;18.02;100.00;96144.44;1030819;28;20121;-75
2023/08/16 02:11:54;;;;;;;7.50;4.38;;;;;;;17.99;100.00;96137.06;1030831;28;20015;-77
2023/08/16 02:12:25;;;;;;;8.48;4.50;;;;;;;18.06;100.00;96144.63;1030737;28;20567;-75
2023/08/16 02:12:57;;;;;;;10.85;5.10;;;;;;;18.07;100.00;96143.53;1030606;28;20029;-77
2023/08/16 02:13:28;;;;;;;9.43;5.18;;;;;;;18.07;100.00;96152.28;1034760;28;20026;-77
2023/08/16 02:13:58;;;;;;;14.43;5.43;;;;;;;18.07;100.00;96146.97;1030800;28;20448;-75
2023/08/16 02:14:29;;;;;;;10.00;5.20;;;;;;;18.04;100.00;96142.28;1030542;28;20103;-74
2023/08/16 02:14:59;;;;;;;14.10;5.82;;;;;;;18.04;100.00;96144.94;1030435;28;20058;-75
2023/08/16 02:15:30;;;;;;;11.10;4.90;;;;;;;17.99;100.00;96136.28;1030780;28;20386;-75
2023/08/16 02:16:01;;;;;;;6.47;4.57;;;;;;;17.99;100.00;96137.06;1026584;28;20033;-75
2023/08/16 02:16:32;;;;;;;5.40;4.90;;;;;;;17.98;100.00;96135.50;1030431;28;20407;-75
2023/08/16 02:17:02;;;;;;;7.55;5.13;;;;;;;18.00;100.00;96149.25;1035018;28;20030;-75
2023/08/16 02:17:33;;;;;;;9.30;5.07;;;;;;;18.00;100.00;96145.81;1034869;28;20026;-76
2023/08/16 02:18:03;;;;;;;12.35;5.88;;;;;;;17.97;100.00;96143.75;1033988;28;20431;-76
2023/08/16 02:18:34;;;;;;;8.60;5.22;;;;;;;17.98;100.00;96146.13;1033362;28;20049;-75
2023/08/16 02:19:04;;;;;;;10.32;5.50;;;;;;;17.98;100.00;96151.44;1030745;28;20113;-76
2023/08/16 02:19:35;;;;;;;13.70;4.80;;;;;;;17.95;100.00;96152.03;1022903;29;20038;-74
2023/08/16 02:20:06;;;;;;;8.88;4.93;;;;;;;17.77;100.00;96118.44;1026248;28;20564;-74
2023/08/16 02:20:38;;;;;;;13.23;5.35;;;;;;;17.94;100.00;96149.66;1030191;28;20030;-75
2023/08/16 02:21:09;;;;;;;7.57;4.88;;;;;;;17.92;100.00;96149.19;1026952;28;20044;-75
2023/08/16 02:21:39;;;;;;;6.15;4.85;;;;;;;17.93;100.00;96150.75;1030613;28;20424;-75
2023/08/16 02:22:10;;;;;;;8.90;5.10;;;;;;;17.86;100.00;96146.66;1027564;28;20039;-75
2023/08/16 02:22:40;;;;;;;6.57;4.97;;;;;;;17.81;100.00;96138.81;1034147;28;20510;-74
2023/08/16 02:23:11;;;;;;;8.45;5.35;;;;;;;17.87;100.00;96147.41;1024910;28;20034;-74
2023/08/16 02:23:41;;;;;;;6.10;4.65;;;;;;;17.88;100.00;96156.97;1026215;28;20027;-74
2023/08/16 02:24:12;;;;;;;8.95;4.90;;;;;;;17.86;100.00;96149.28;1023207;29;20031;-76
2023/08/16 02:24:42;;;;;;;5.70;4.90;;;;;;;17.86;100.00;96157.25;1026799;28;20477;-74
2023/08/16 02:25:13;;;;;;;7.05;5.10;;;;;;;17.79;100.00;96148.13;1026544;28;20026;-76
2023/08/16 02:25:43;;;;;;;7.03;4.63;;;;;;;17.78;100.00;96150.00;1026702;28;20378;-74